Time,TemperatureF,DewpointF,PressureIn,WindDirection,WindDirectionDegrees,WindSpeedMPH,WindSpeedGustMPH,Humidity,HourlyPrecipIn,Conditions,Clouds,dailyrainin,SoftwareType,DateUTC
2013-07-16 00:01:00,81.0,75.0,30.03,ENE,68,0.0,0.0,82,0.00,,,0.00,,2013-07-16 04:01:00,
2013-07-16 00:12:00,81.0,75.0,30.03,ENE,72,0.0,0.0,83,0.00,,,0.00,,2013-07-16 04:12:00,
2013-07-16 00:32:00,81.0,76.0,30.03,ENE,58,0.0,0.0,84,0.00,,,0.00,,2013-07-16 04:32:00,
2013-07-16 00:53:00,81.0,76.0,30.03,NE,51,0.0,0.0,84,0.00,,,0.00,,2013-07-16 04:53:00,
2013-07-16 01:01:00,81.0,76.0,30.02,ESE,113,0.0,0.0,84,0.00,,,0.00,,2013-07-16 05:01:00,
2013-07-16 01:22:00,81.0,76.0,30.02,East,93,0.0,0.0,85,0.00,,,0.00,,2013-07-16 05:22:00,
2013-07-16 01:32:00,81.0,76.0,30.01,ESE,121,0.0,0.0,85,0.00,,,0.00,,2013-07-16 05:32:00,
2013-07-16 01:43:00,81.0,76.0,30.01,East,94,0.0,0.0,84,0.00,,,0.00,,2013-07-16 05:43:00,
2013-07-16 01:52:00,81.0,75.0,30.01,ENE,72,0.0,0.0,83,0.00,,,0.00,,2013-07-16 05:52:00,
2013-07-16 02:01:00,81.0,75.0,30.01,East,95,0.0,0.0,83,0.00,,,0.00,,2013-07-16 06:01:00,
2013-07-16 02:11:00,81.0,75.0,30.01,East,82,0.0,0.0,83,0.00,,,0.00,,2013-07-16 06:11:00,
2013-07-16 02:22:00,81.0,75.0,30.01,SE,125,0.0,0.0,83,0.00,,,0.00,,2013-07-16 06:22:00,
2013-07-16 02:43:00,81.0,76.0,30.01,ENE,67,0.0,0.0,84,0.00,,,0.00,,2013-07-16 06:43:00,
2013-07-16 02:52:00,81.0,76.0,30.01,ENE,67,0.0,0.0,84,0.00,,,0.00,,2013-07-16 06:52:00,
2013-07-16 03:01:00,80.0,75.0,30.01,East,90,0.0,0.0,85,0.00,,,0.00,,2013-07-16 07:01:00,
2013-07-16 03:11:00,80.0,75.0,30.00,East,98,0.0,0.0,85,0.00,,,0.00,,2013-07-16 07:11:00,
2013-07-16 03:22:00,80.0,75.0,30.00,East,87,0.0,0.0,84,0.00,,,0.00,,2013-07-16 07:22:00,
2013-07-16 03:32:00,80.0,74.0,29.99,East,92,0.0,0.0,83,0.00,,,0.00,,2013-07-16 07:32:00,
2013-07-16 03:43:00,80.0,74.0,29.99,East,90,0.0,0.0,82,0.00,,,0.00,,2013-07-16 07:43:00,
2013-07-16 03:52:00,80.0,74.0,29.99,ENE,73,0.0,0.0,82,0.00,,,0.00,,2013-07-16 07:52:00,
2013-07-16 04:01:00,80.0,74.0,29.99,ENE,62,0.0,0.0,82,0.00,,,0.00,,2013-07-16 08:01:00,
2013-07-16 04:11:00,80.0,74.0,29.99,East,81,0.0,0.0,83,0.00,,,0.00,,2013-07-16 08:11:00,
2013-07-16 04:22:00,80.0,75.0,29.99,ENE,60,0.0,0.0,84,0.00,,,0.00,,2013-07-16 08:22:00,
2013-07-16 04:32:00,80.0,75.0,29.99,SE,126,0.0,0.0,85,0.00,,,0.00,,2013-07-16 08:32:00,
2013-07-16 04:43:00,80.0,75.0,29.99,ENE,63,0.0,0.0,85,0.00,,,0.00,,2013-07-16 08:43:00,
2013-07-16 04:52:00,80.0,75.0,29.99,ENE,57,0.0,0.0,86,0.00,,,0.00,,2013-07-16 08:52:00,
2013-07-16 05:01:00,80.0,75.0,29.98,ENE,67,0.0,0.0,86,0.00,,,0.00,,2013-07-16 09:01:00,
2013-07-16 05:22:00,78.0,73.0,29.98,ENE,77,0.0,0.0,85,0.08,,,0.08,,2013-07-16 09:22:00,
2013-07-16 05:32:00,78.0,74.0,29.98,East,94,0.0,0.0,88,0.08,,,0.08,,2013-07-16 09:32:00,
2013-07-16 05:42:00,78.0,74.0,29.98,East,97,0.0,0.0,88,0.08,,,0.08,,2013-07-16 09:42:00,
2013-07-16 05:52:00,78.0,74.0,29.98,East,82,0.0,0.0,89,0.08,,,0.08,,2013-07-16 09:52:00,
2013-07-16 06:43:00,78.0,75.0,29.98,East,79,0.0,0.0,91,0.00,,,0.08,,2013-07-16 10:43:00,
2013-07-16 06:52:00,78.0,75.0,29.98,ENE,75,0.0,0.0,91,0.00,,,0.08,,2013-07-16 10:52:00,
2013-07-16 07:52:00,77.0,74.0,30.00,East,90,0.0,0.0,89,0.00,,,0.08,,2013-07-16 11:52:00,
2013-07-16 08:01:00,77.0,74.0,30.00,East,86,0.0,0.0,89,0.00,,,0.08,,2013-07-16 12:01:00,
2013-07-16 08:53:00,81.0,77.0,30.02,East,92,0.0,0.0,87,0.00,,,0.08,,2013-07-16 12:53:00,
2013-07-16 09:11:00,81.0,76.0,30.01,SSE,153,0.0,0.0,84,0.00,,,0.08,,2013-07-16 13:11:00,
2013-07-16 09:22:00,80.0,76.0,30.01,SSE,158,0.0,0.0,87,0.00,,,0.08,,2013-07-16 13:22:00,
2013-07-16 09:32:00,79.0,75.0,30.02,SSE,153,0.0,0.0,87,0.00,,,0.08,,2013-07-16 13:32:00,
2013-07-16 09:52:00,79.0,75.0,30.03,ENE,78,0.0,0.0,88,0.00,,,0.08,,2013-07-16 13:52:00,
2013-07-16 10:02:00,78.0,74.0,30.04,East,79,0.0,0.0,88,0.02,,,0.10,,2013-07-16 14:02:00,
2013-07-16 10:21:00,76.0,73.0,30.06,East,100,0.0,0.0,91,0.29,,,0.37,,2013-07-16 14:21:00,
2013-07-16 10:32:00,75.0,73.0,30.06,East,80,0.0,0.0,92,0.44,,,0.52,,2013-07-16 14:32:00,
2013-07-16 10:43:00,75.0,73.0,30.06,East,90,0.0,0.0,92,0.50,,,0.58,,2013-07-16 14:43:00,
2013-07-16 10:52:00,75.0,73.0,30.06,SSE,158,0.0,0.0,93,0.51,,,0.59,,2013-07-16 14:52:00,
2013-07-16 11:11:00,74.0,72.0,30.03,ESE,119,0.0,0.0,93,0.35,,,0.60,,2013-07-16 15:11:00,
2013-07-16 11:22:00,74.0,72.0,30.04,SE,145,0.0,0.0,93,0.21,,,0.60,,2013-07-16 15:22:00,
2013-07-16 11:32:00,75.0,73.0,30.04,ENE,77,0.0,0.0,94,0.08,,,0.60,,2013-07-16 15:32:00,
2013-07-16 11:43:00,75.0,73.0,30.05,ENE,77,0.0,0.0,94,0.02,,,0.60,,2013-07-16 15:43:00,
2013-07-16 11:53:00,76.0,74.0,30.05,NNE,32,0.0,0.0,94,0.01,,,0.60,,2013-07-16 15:53:00,
2013-07-16 12:43:00,79.0,77.0,30.04,NE,50,0.0,0.0,93,0.00,,,0.60,,2013-07-16 16:43:00,
2013-07-16 12:52:00,80.0,77.0,30.05,ENE,61,0.0,0.0,92,0.00,,,0.60,,2013-07-16 16:52:00,
2013-07-16 13:12:00,82.0,77.0,30.06,ENE,67,0.0,0.0,84,0.00,,,0.60,,2013-07-16 17:12:00,
2013-07-16 13:22:00,83.0,77.0,30.05,NE,49,0.0,0.0,81,0.00,,,0.60,,2013-07-16 17:22:00,
2013-07-16 13:33:00,84.0,77.0,30.05,NE,45,0.0,0.0,79,0.00,,,0.60,,2013-07-16 17:33:00,
2013-07-16 13:43:00,84.0,76.0,30.04,ENE,62,0.0,0.0,78,0.00,,,0.60,,2013-07-16 17:43:00,
2013-07-16 13:53:00,84.0,76.0,30.04,ENE,78,0.0,0.0,78,0.00,,,0.60,,2013-07-16 17:53:00,
2013-07-16 14:01:00,84.0,77.0,30.04,ENE,77,0.0,0.0,80,0.00,,,0.60,,2013-07-16 18:01:00,
2013-07-16 14:11:00,84.0,77.0,30.04,ENE,77,0.0,0.0,80,0.00,,,0.60,,2013-07-16 18:11:00,
2013-07-16 14:22:00,84.0,78.0,30.03,East,79,0.0,0.0,81,0.00,,,0.60,,2013-07-16 18:22:00,
2013-07-16 14:32:00,84.0,77.0,30.03,ENE,73,0.0,0.0,79,0.00,,,0.60,,2013-07-16 18:32:00,
2013-07-16 14:43:00,85.0,78.0,30.03,East,79,0.0,0.0,79,0.00,,,0.60,,2013-07-16 18:43:00,
2013-07-16 14:53:00,83.0,75.0,30.03,ENE,73,0.0,0.0,78,0.00,,,0.60,,2013-07-16 18:53:00,
2013-07-16 15:01:00,84.0,78.0,30.02,East,88,0.0,0.0,81,0.00,,,0.60,,2013-07-16 19:01:00,
2013-07-16 15:11:00,84.0,78.0,30.02,East,88,0.0,0.0,81,0.00,,,0.60,,2013-07-16 19:11:00,
2013-07-16 15:22:00,84.0,78.0,30.02,ENE,77,0.0,0.0,81,0.00,,,0.60,,2013-07-16 19:22:00,
2013-07-16 15:32:00,83.0,77.0,30.02,ESE,106,0.0,0.0,83,0.00,,,0.60,,2013-07-16 19:32:00,
2013-07-16 15:43:00,83.0,78.0,30.01,SE,127,0.0,0.0,84,0.00,,,0.60,,2013-07-16 19:43:00,
2013-07-16 15:52:00,84.0,79.0,30.00,ESE,107,0.0,0.0,84,0.00,,,0.60,,2013-07-16 19:52:00,
2013-07-16 16:43:00,84.0,76.0,30.00,ENE,59,0.0,0.0,77,0.00,,,0.60,,2013-07-16 20:43:00,
2013-07-16 16:52:00,85.0,77.0,30.00,ENE,69,0.0,0.0,77,0.00,,,0.60,,2013-07-16 20:52:00,
2013-07-16 17:11:00,85.0,77.0,30.00,East,82,0.0,0.0,78,0.00,,,0.60,,2013-07-16 21:11:00,
2013-07-16 17:52:00,82.0,76.0,30.00,East,88,0.0,0.0,82,0.05,,,0.65,,2013-07-16 21:52:00,
2013-07-16 18:43:00,79.0,75.0,30.01,SE,129,0.0,0.0,89,0.17,,,0.84,,2013-07-16 22:43:00,
2013-07-16 18:52:00,79.0,76.0,30.01,ESE,121,0.0,0.0,90,0.06,,,0.84,,2013-07-16 22:52:00,
2013-07-16 19:11:00,79.0,75.0,30.01,SE,127,0.0,0.0,89,0.00,,,0.84,,2013-07-16 23:11:00,
2013-07-16 19:22:00,79.0,75.0,30.01,East,87,0.0,0.0,88,0.00,,,0.84,,2013-07-16 23:22:00,
2013-07-16 19:32:00,79.0,75.0,30.02,ESE,115,0.0,0.0,87,0.00,,,0.84,,2013-07-16 23:32:00,
2013-07-16 19:43:00,80.0,75.0,30.02,SE,125,0.0,0.0,86,0.00,,,0.84,,2013-07-16 23:43:00,
2013-07-16 20:01:00,80.0,75.0,30.02,East,90,0.0,0.0,86,0.00,,,0.84,,2013-07-17 00:01:00,
2013-07-16 20:11:00,80.0,75.0,30.02,ESE,104,0.0,0.0,86,0.00,,,0.84,,2013-07-17 00:11:00,
2013-07-16 20:22:00,80.0,75.0,30.03,ESE,118,0.0,0.0,86,0.00,,,0.84,,2013-07-17 00:22:00,
2013-07-16 20:33:00,80.0,75.0,30.03,SE,134,0.0,0.0,86,0.00,,,0.84,,2013-07-17 00:33:00,
2013-07-16 20:42:00,80.0,75.0,30.03,East,98,0.0,0.0,85,0.00,,,0.84,,2013-07-17 00:42:00,
2013-07-16 20:52:00,80.0,75.0,30.03,ENE,69,0.0,0.0,85,0.00,,,0.84,,2013-07-17 00:52:00,
2013-07-16 21:01:00,80.0,75.0,30.03,East,98,0.0,0.0,85,0.00,,,0.84,,2013-07-17 01:01:00,
2013-07-16 21:11:00,80.0,75.0,30.03,ESE,120,0.0,0.0,84,0.00,,,0.84,,2013-07-17 01:11:00,
2013-07-16 21:22:00,79.0,73.0,30.03,ESE,107,0.0,0.0,83,0.00,,,0.84,,2013-07-17 01:22:00,
2013-07-16 21:32:00,80.0,74.0,30.04,SE,144,0.0,0.0,83,0.00,,,0.84,,2013-07-17 01:32:00,
2013-07-16 21:43:00,80.0,74.0,30.03,East,98,0.0,0.0,83,0.00,,,0.84,,2013-07-17 01:43:00,
2013-07-16 21:53:00,80.0,74.0,30.04,East,98,0.0,0.0,83,0.00,,,0.84,,2013-07-17 01:53:00,
2013-07-16 22:01:00,80.0,75.0,30.05,SSE,149,0.0,0.0,84,0.00,,,0.84,,2013-07-17 02:01:00,
2013-07-16 22:43:00,78.0,74.0,30.06,SSE,163,0.0,0.0,88,0.03,,,0.87,,2013-07-17 02:43:00,
2013-07-16 22:53:00,78.0,74.0,30.06,SE,136,0.0,0.0,89,0.03,,,0.87,,2013-07-17 02:53:00,
2013-07-16 23:43:00,75.0,73.0,30.06,ESE,118,0.0,0.0,92,0.61,,,1.48,,2013-07-17 03:43:00,
2013-07-16 23:53:00,75.0,73.0,30.07,SE,138,0.0,0.0,93,0.65,,,1.52,,2013-07-17 03:53:00,